Time;durP1;ratioP1;P1;durP2;ratioP2;P2;SDS_P1;SDS_P2;PMS_P1;PMS_P2;Temp;Humidity;BMP_temperature;BMP_pressure;BME280_temperature;BME280_humidity;BME280_pressure;Samples;Min_cycle;Max_cycle;Signal;HPM_P1;HPM_P2
2022/02/08 00:01:08;;;;;;;22.85;13.05;;;;;;;6.28;100.00;102220.31;5097162;28;20099;-74
2022/02/08 00:03:34;;;;;;;17.45;12.10;;;;;;;6.30;100.00;102219.03;5076092;28;20545;-73
2022/02/08 00:08:30;;;;;;;20.58;13.18;;;;;;;6.30;100.00;102227.31;5070185;28;20028;-74
2022/02/08 00:10:56;;;;;;;18.00;13.18;;;;;;;6.32;100.00;102236.19;5071821;28;20734;-73
2022/02/08 00:13:21;;;;;;;17.67;11.55;;;;;;;6.32;100.00;102236.19;5062381;28;20503;-73
2022/02/08 00:15:47;;;;;;;20.10;12.73;;;;;;;6.33;100.00;102242.56;5062832;28;20035;-74
2022/02/08 00:18:12;;;;;;;19.27;12.13;;;;;;;6.33;100.00;102243.41;5090236;28;20422;-74
2022/02/08 00:20:38;;;;;;;17.30;12.27;;;;;;;6.33;100.00;102237.06;5102667;28;20039;-73
2022/02/08 00:23:03;;;;;;;18.13;12.13;;;;;;;6.35;100.00;102234.88;5055655;28;20032;-73
2022/02/08 00:25:28;;;;;;;16.92;11.27;;;;;;;6.33;100.00;102231.53;5058842;28;20032;-74
2022/02/08 00:27:54;;;;;;;16.98;11.65;;;;;;;6.34;100.00;102231.28;5084478;28;20039;-73
2022/02/08 00:30:19;;;;;;;15.68;11.40;;;;;;;6.36;100.00;102234.69;5084154;28;20035;-73
2022/02/08 00:32:45;;;;;;;15.80;11.18;;;;;;;6.36;100.00;102231.09;5125916;27;20059;-73
2022/02/08 00:35:10;;;;;;;16.15;10.52;;;;;;;6.34;100.00;102239.56;5117070;27;20031;-73
2022/02/08 00:37:36;;;;;;;16.63;10.82;;;;;;;6.35;100.00;102241.28;5129927;27;20463;-73
2022/02/08 00:40:02;;;;;;;15.52;10.40;;;;;;;6.34;100.00;102239.56;5104485;27;20058;-73
2022/02/08 00:42:30;;;;;;;14.73;10.48;;;;;;;6.34;100.00;102228.53;5099181;28;20122;-74
2022/02/08 00:45:09;;;;;;;17.58;11.25;;;;;;;6.35;100.00;102230.25;5111626;27;20122;-73
2022/02/08 00:47:39;;;;;;;14.18;10.38;;;;;;;6.35;100.00;102233.00;5115796;27;20031;-74
2022/02/08 00:50:07;;;;;;;14.00;9.88;;;;;;;6.37;100.00;102232.75;5103605;27;20114;-73
2022/02/08 00:52:34;;;;;;;14.75;10.20;;;;;;;6.35;100.00;102235.75;5101067;27;20070;-73
2022/02/08 00:54:59;;;;;;;13.80;10.23;;;;;;;6.38;100.00;102239.97;5086059;27;20410;-73
2022/02/08 00:57:25;;;;;;;14.32;10.02;;;;;;;6.36;100.00;102233.84;5082519;28;20028;-74
2022/02/08 00:59:50;;;;;;;14.13;10.15;;;;;;;6.40;100.00;102235.06;5087552;27;20027;-74
2022/02/08 01:02:16;;;;;;;15.02;10.38;;;;;;;6.40;100.00;102238.66;5122090;27;20030;-73
2022/02/08 01:04:47;;;;;;;14.32;10.35;;;;;;;6.39;100.00;102237.00;5105949;27;20047;-74
2022/02/08 01:07:13;;;;;;;13.73;10.10;;;;;;;6.37;100.00;102235.53;5093787;27;20122;-74
2022/02/08 01:10:01;;;;;;;15.20;10.25;;;;;;;6.37;100.00;102233.59;5101483;27;20042;-73
2022/02/08 01:12:24;;;;;;;14.07;9.95;;;;;;;6.37;100.00;102228.06;5103817;27;20093;-73
2022/02/08 01:14:51;;;;;;;14.10;9.63;;;;;;;6.39;100.00;102234.22;5079670;27;20434;-74
2022/02/08 01:17:17;;;;;;;13.50;9.50;;;;;;;6.39;100.00;102225.94;5080722;28;20028;-74
2022/02/08 01:20:05;;;;;;;14.18;10.05;;;;;;;6.42;100.00;102219.97;5097265;27;20063;-73
2022/02/08 01:22:31;;;;;;;12.48;9.15;;;;;;;6.41;100.00;102215.53;5084468;28;20132;-74
2022/02/08 01:24:56;;;;;;;12.55;9.43;;;;;;;6.42;100.00;102222.75;5079547;27;20023;-74
2022/02/08 01:27:26;;;;;;;13.25;9.73;;;;;;;6.43;100.00;102235.47;5112847;28;20459;-73
2022/02/08 01:29:58;;;;;;;14.02;9.63;;;;;;;6.41;100.00;102232.09;5085474;27;20080;-74
2022/02/08 01:35:05;;;;;;;13.45;10.00;;;;;;;6.41;100.00;102229.34;5074931;28;20524;-74
2022/02/08 01:40:52;;;;;;;12.43;9.27;;;;;;;6.43;100.00;102227.19;5078724;28;20036;-74
2022/02/08 01:43:52;;;;;;;14.32;10.20;;;;;;;6.43;100.00;102218.06;5092243;28;20489;-74
2022/02/08 01:48:59;;;;;;;12.43;9.27;;;;;;;6.44;100.00;102228.88;5069966;28;20173;-74
2022/02/08 01:51:24;;;;;;;12.55;9.35;;;;;;;6.44;100.00;102237.16;5053686;28;20034;-74
2022/02/08 01:53:50;;;;;;;13.52;9.45;;;;;;;6.44;100.00;102231.66;5091734;28;20032;-73
2022/02/08 01:56:15;;;;;;;13.18;9.73;;;;;;;6.45;100.00;102233.31;5064560;28;20038;-74
2022/02/08 01:58:41;;;;;;;15.93;10.07;;;;;;;6.44;100.00;102226.13;5043657;28;20036;-73
2022/02/08 02:01:08;;;;;;;13.82;10.15;;;;;;;6.47;100.00;102233.13;5060059;28;20042;-74
2022/02/08 02:03:34;;;;;;;13.98;10.02;;;;;;;6.46;100.00;102232.28;5074697;28;20038;-74
2022/02/08 02:06:00;;;;;;;13.13;9.38;;;;;;;6.46;100.00;102235.03;5076379;28;20119;-73
2022/02/08 02:08:25;;;;;;;12.15;9.60;;;;;;;6.47;100.00;102236.72;5075215;28;20095;-74
2022/02/08 02:10:51;;;;;;;13.55;8.98;;;;;;;6.44;100.00;102242.69;5063690;28;20550;-74
2022/02/08 02:13:50;;;;;;;11.98;8.90;;;;;;;6.44;100.00;102236.31;5062463;28;20471;-74
2022/02/08 02:16:09;;;;;;;11.80;7.95;;;;;;;6.45;100.00;102238.84;5086758;28;20032;-74
2022/02/08 02:18:35;;;;;;;12.00;8.60;;;;;;;6.45;100.00;102244.38;5076638;28;20496;-73
2022/02/08 02:21:02;;;;;;;12.90;8.25;;;;;;;6.48;100.00;102238.41;5075431;28;20031;-73
2022/02/08 02:23:28;;;;;;;10.75;8.13;;;;;;;6.47;100.00;102236.72;5050167;28;20032;-74
2022/02/08 02:25:53;;;;;;;13.18;9.05;;;;;;;6.48;100.00;102232.88;5063931;28;20039;-73
2022/02/08 02:28:18;;;;;;;10.43;7.78;;;;;;;6.51;100.00;102236.25;5061298;28;20043;-74
2022/02/08 02:30:44;;;;;;;12.57;8.70;;;;;;;6.51;100.00;102239.88;5062767;28;20437;-74
2022/02/08 02:33:10;;;;;;;11.23;7.93;;;;;;;6.51;100.00;102239.03;5096401;28;20050;-74
2022/02/08 02:35:36;;;;;;;9.43;7.18;;;;;;;6.50;100.00;102243.69;5080792;28;20031;-74
2022/02/08 02:38:05;;;;;;;9.63;6.88;;;;;;;6.53;100.00;102245.16;5093458;28;20507;-73
2022/02/08 02:40:31;;;;;;;9.63;7.05;;;;;;;6.52;100.00;102238.81;5073241;28;20036;-73
2022/02/08 02:42:57;;;;;;;9.20;6.85;;;;;;;6.53;100.00;102250.69;5066849;28;20039;-73
2022/02/08 02:45:23;;;;;;;8.30;6.60;;;;;;;6.54;100.00;102249.59;5100785;28;20035;-73
2022/02/08 02:47:52;;;;;;;9.27;7.43;;;;;;;6.55;100.00;102254.09;5101443;28;20046;-74
2022/02/08 02:50:21;;;;;;;9.48;6.68;;;;;;;6.56;100.00;102253.00;5077740;28;20024;-73
2022/02/08 02:52:47;;;;;;;8.77;6.80;;;;;;;6.57;100.00;102251.91;5094940;28;20118;-74
2022/02/08 02:55:14;;;;;;;8.82;6.35;;;;;;;6.55;100.00;102251.31;5073939;28;20036;-74
2022/02/08 02:57:41;;;;;;;10.77;6.32;;;;;;;6.58;100.00;102248.09;5098325;28;20751;-74
2022/02/08 03:00:13;;;;;;;9.55;6.93;;;;;;;6.59;100.00;102238.75;5080994;28;20035;-73
2022/02/08 03:02:50;;;;;;;8.43;6.57;;;;;;;6.59;100.00;102241.50;5075355;28;20047;-74
2022/02/08 03:05:30;;;;;;;8.57;6.72;;;;;;;6.57;100.00;102236.19;5090248;28;20118;-74
2022/02/08 03:18:52;;;;;;;7.70;5.93;;;;;;;6.62;100.00;102232.78;5095079;27;20031;-74
2022/02/08 03:21:17;;;;;;;8.10;6.20;;;;;;;6.64;100.00;102241.69;5090491;28;20027;-74
2022/02/08 03:23:43;;;;;;;10.90;7.32;;;;;;;6.62;100.00;102244.66;5105660;28;20036;-73
2022/02/08 03:26:08;;;;;;;9.45;6.78;;;;;;;6.63;100.00;102245.50;5113577;27;20031;-73
2022/02/08 03:28:34;;;;;;;7.80;6.03;;;;;;;6.64;100.00;102230.63;5082167;28;20035;-73
2022/02/08 03:30:59;;;;;;;7.53;5.95;;;;;;;6.64;100.00;102238.91;5094191;27;20468;-74
2022/02/08 03:33:26;;;;;;;8.73;5.82;;;;;;;6.65;100.00;102235.06;5071761;28;20047;-73
2022/02/08 03:35:54;;;;;;;7.65;5.50;;;;;;;6.64;100.00;102234.22;5098946;27;20035;-73
2022/02/08 03:38:26;;;;;;;7.18;5.35;;;;;;;6.66;100.00;102234.88;5103928;27;20031;-73
2022/02/08 03:40:53;;;;;;;7.43;5.45;;;;;;;6.68;100.00;102238.22;5096920;28;20032;-73
2022/02/08 03:45:50;;;;;;;8.32;6.15;;;;;;;6.67;100.00;102231.03;5090386;28;20039;-74
2022/02/08 03:48:18;;;;;;;7.53;5.65;;;;;;;6.69;100.00;102223.38;5081501;27;20031;-74
2022/02/08 03:50:46;;;;;;;8.38;6.20;;;;;;;6.69;100.00;102225.28;5104633;27;20502;-73
2022/02/08 03:53:12;;;;;;;7.30;5.55;;;;;;;6.68;100.00;102227.19;5094061;28;20035;-73
2022/02/08 03:55:38;;;;;;;8.18;5.85;;;;;;;6.70;100.00;102225.03;5082904;28;20057;-73
2022/02/08 03:58:03;;;;;;;7.55;5.75;;;;;;;6.71;100.00;102224.00;5092376;27;20031;-73
2022/02/08 04:00:34;;;;;;;7.53;5.60;;;;;;;6.71;100.00;102225.88;5094395;27;20054;-74
2022/02/08 04:02:59;;;;;;;8.77;5.90;;;;;;;6.71;100.00;102225.88;5072022;28;20041;-73
2022/02/08 04:05:32;;;;;;;8.27;5.95;;;;;;;6.74;100.00;102235.63;5077455;27;20399;-74
2022/02/08 04:08:01;;;;;;;7.93;5.88;;;;;;;6.71;100.00;102225.88;5083176;28;20425;-74
2022/02/08 04:10:29;;;;;;;9.20;6.68;;;;;;;6.74;100.00;102227.34;5095704;27;20042;-74
2022/02/08 04:13:16;;;;;;;9.27;6.45;;;;;;;6.72;100.00;102224.81;5068864;28;20036;-73
2022/02/08 04:18:48;;;;;;;8.45;5.95;;;;;;;6.72;100.00;102224.81;5094299;27;20035;-73
2022/02/08 04:32:42;;;;;;;9.02;6.85;;;;;;;6.74;100.00;102219.91;5122214;27;20484;-73
2022/02/08 04:45:30;;;;;;;8.43;6.18;;;;;;;6.77;100.00;102219.47;5081622;28;20028;-73
2022/02/08 04:50:23;;;;;;;9.07;6.22;;;;;;;6.78;100.00;102209.28;5100145;27;20064;-73
2022/02/08 04:52:50;;;;;;;8.65;6.50;;;;;;;6.75;100.00;102205.03;5082553;27;20123;-74
2022/02/08 04:57:53;;;;;;;9.55;6.38;;;;;;;6.78;100.00;102220.31;5105352;28;20118;-73
2022/02/08 05:00:30;;;;;;;8.52;5.88;;;;;;;6.78;100.00;102215.63;5076375;27;20125;-73
2022/02/08 05:43:17;;;;;;;8.68;6.00;;;;;;;6.88;100.00;102226.16;5083217;28;20036;-73
2022/02/08 05:48:24;;;;;;;9.20;6.28;;;;;;;6.84;100.00;102220.25;5098741;27;20066;-73
2022/02/08 05:51:06;;;;;;;8.07;5.45;;;;;;;6.84;100.00;102223.00;5092140;28;20032;-73
2022/02/08 05:56:06;;;;;;;8.23;6.05;;;;;;;6.85;100.00;102219.19;5094245;28;20503;-73
2022/02/08 05:58:31;;;;;;;8.93;6.38;;;;;;;6.88;100.00;102227.00;5098859;27;20077;-73
2022/02/08 06:00:57;;;;;;;7.53;5.60;;;;;;;6.86;100.00;102228.31;5079466;28;20040;-73
2022/02/08 06:03:22;;;;;;;6.78;5.03;;;;;;;6.86;100.00;102223.63;5091185;27;20050;-73
2022/02/08 06:05:49;;;;;;;8.32;5.57;;;;;;;6.86;100.00;102223.63;5088941;28;20032;-73
2022/02/08 06:08:15;;;;;;;6.35;5.13;;;;;;;6.84;100.00;102220.25;5064321;28;20520;-73
2022/02/08 06:10:48;;;;;;;6.93;5.40;;;;;;;6.85;100.00;102218.31;5077478;28;20049;-73
2022/02/08 06:13:15;;;;;;;7.80;5.15;;;;;;;6.87;100.00;102219.78;5098319;28;20028;-73
2022/02/08 06:15:42;;;;;;;6.65;4.82;;;;;;;6.86;100.00;102223.63;5087455;28;20036;-74
2022/02/08 06:18:08;;;;;;;7.18;5.28;;;;;;;6.85;100.00;102221.06;5098895;28;20395;-73
2022/02/08 06:20:33;;;;;;;7.07;5.20;;;;;;;6.85;100.00;102216.44;5089477;28;20031;-74
2022/02/08 06:23:00;;;;;;;5.78;4.47;;;;;;;6.84;100.00;102220.25;5121183;28;20043;-74
2022/02/08 06:25:26;;;;;;;6.18;4.60;;;;;;;6.85;100.00;102221.94;5084123;28;20040;-73
2022/02/08 06:27:51;;;;;;;6.75;4.40;;;;;;;6.89;100.00;102219.56;5098520;28;20047;-73
2022/02/08 06:30:18;;;;;;;7.00;4.63;;;;;;;6.85;100.00;102216.44;5104906;28;20043;-73
2022/02/08 06:32:44;;;;;;;5.85;4.05;;;;;;;6.84;100.00;102214.72;5062435;28;20131;-73
2022/02/08 06:35:18;;;;;;;5.03;3.95;;;;;;;6.86;100.00;102223.63;5078146;28;20051;-73
2022/02/08 06:37:44;;;;;;;6.40;4.10;;;;;;;6.85;100.00;102219.19;5078575;28;20032;-73
2022/02/08 06:40:10;;;;;;;6.05;4.30;;;;;;;6.86;100.00;102220.03;5065359;28;20028;-73
2022/02/08 06:42:36;;;;;;;5.75;4.32;;;;;;;6.86;100.00;102223.63;5073626;28;20035;-73
2022/02/08 06:45:03;;;;;;;6.25;4.05;;;;;;;6.86;100.00;102211.75;5077961;28;20036;-73
2022/02/08 06:47:31;;;;;;;5.40;3.95;;;;;;;6.88;100.00;102209.56;5054063;28;20050;-73
2022/02/08 06:49:56;;;;;;;6.47;3.97;;;;;;;6.85;100.00;102204.50;5064397;28;20045;-74
2022/02/08 06:52:22;;;;;;;7.22;4.20;;;;;;;6.85;100.00;102207.28;5079660;28;20476;-74
2022/02/08 06:54:48;;;;;;;4.97;3.50;;;;;;;6.87;100.00;102202.38;5075760;28;20028;-73
2022/02/08 06:57:14;;;;;;;4.97;3.55;;;;;;;6.85;100.00;102198.97;5113596;28;20031;-73
2022/02/08 06:59:40;;;;;;;4.25;3.40;;;;;;;6.83;100.00;102204.75;5056950;28;20084;-74
2022/02/08 07:02:06;;;;;;;5.70;3.83;;;;;;;6.85;100.00;102208.13;5118336;27;20028;-74
2022/02/08 07:04:31;;;;;;;5.40;3.60;;;;;;;6.85;100.00;102215.56;5077092;28;20035;-73
2022/02/08 07:06:57;;;;;;;5.55;3.30;;;;;;;6.85;100.00;102215.56;5071512;28;20037;-74
2022/02/08 07:09:23;;;;;;;3.97;2.92;;;;;;;6.85;100.00;102208.13;5088385;28;20040;-73
2022/02/08 07:11:49;;;;;;;4.53;3.47;;;;;;;6.84;100.00;102202.81;5062726;28;20028;-77
2022/02/08 07:14:15;;;;;;;6.35;3.65;;;;;;;6.84;100.00;102206.44;5086491;28;20034;-76
2022/02/08 07:16:40;;;;;;;4.80;3.38;;;;;;;6.80;100.00;102198.81;5094479;28;20029;-76
2022/02/08 07:19:06;;;;;;;5.30;3.35;;;;;;;6.82;100.00;102211.31;5079925;28;20114;-77
2022/02/08 07:21:31;;;;;;;6.43;3.22;;;;;;;6.82;100.00;102205.81;5079021;28;20038;-77
2022/02/08 07:23:57;;;;;;;4.38;2.95;;;;;;;6.81;100.00;102209.66;5088619;28;20032;-77
2022/02/08 07:26:23;;;;;;;3.78;2.90;;;;;;;6.83;100.00;102206.69;5054474;28;20036;-77
2022/02/08 07:28:52;;;;;;;4.15;2.90;;;;;;;6.78;100.00;102212.88;5092177;28;20042;-77
2022/02/08 07:31:21;;;;;;;3.92;2.85;;;;;;;6.80;100.00;102207.97;5081773;28;20070;-77
2022/02/08 07:33:53;;;;;;;2.65;2.28;;;;;;;6.81;100.00;102208.81;5075672;28;20047;-78
2022/02/08 07:38:49;;;;;;;3.97;3.00;;;;;;;6.79;100.00;102211.78;5082245;28;20485;-76
2022/02/08 07:43:58;;;;;;;3.85;2.90;;;;;;;6.79;100.00;102214.53;5102947;28;20032;-77
2022/02/08 07:46:24;;;;;;;3.60;2.75;;;;;;;6.78;100.00;102214.78;5088720;28;20104;-76
2022/02/08 07:48:49;;;;;;;3.80;2.70;;;;;;;6.80;100.00;102223.66;5091042;28;20039;-76
2022/02/08 07:51:15;;;;;;;4.70;2.90;;;;;;;6.80;100.00;102213.50;5076718;28;20038;-78
2022/02/08 07:53:41;;;;;;;3.17;2.60;;;;;;;6.79;100.00;102217.31;5048132;28;20039;-77
2022/02/08 07:56:06;;;;;;;3.75;2.60;;;;;;;6.78;100.00;102221.16;5074365;28;20046;-76
2022/02/08 07:58:32;;;;;;;3.05;2.60;;;;;;;6.80;100.00;102219.03;5096224;28;20036;-76
2022/02/08 08:00:57;;;;;;;3.97;2.65;;;;;;;6.82;100.00;102224.28;5058789;28;20032;-77
2022/02/08 08:03:23;;;;;;;3.90;3.00;;;;;;;6.81;100.00;102215.16;5061854;28;20038;-76
2022/02/08 08:05:48;;;;;;;5.65;2.80;;;;;;;6.83;100.00;102220.47;5104515;28;20034;-76
2022/02/08 08:08:14;;;;;;;3.80;2.83;;;;;;;6.82;100.00;102219.63;5077040;28;20039;-76
2022/02/08 08:10:45;;;;;;;3.47;2.70;;;;;;;6.83;100.00;102217.72;5070582;28;20474;-76
2022/02/08 08:13:12;;;;;;;3.92;2.78;;;;;;;6.82;100.00;102219.63;5066624;28;20032;-76
2022/02/08 08:15:44;;;;;;;4.22;2.70;;;;;;;6.85;100.00;102215.56;5073069;28;20059;-76
2022/02/08 08:21:05;;;;;;;4.00;3.05;;;;;;;6.89;100.00;102216.81;5091249;28;20078;-76
2022/02/08 08:23:30;;;;;;;4.72;3.17;;;;;;;6.86;100.00;102211.75;5073082;28;20051;-76
2022/02/08 08:25:56;;;;;;;3.45;2.70;;;;;;;6.88;100.00;102212.34;5060805;28;20027;-76
2022/02/08 08:28:21;;;;;;;3.53;2.70;;;;;;;6.89;100.00;102212.13;5099221;28;20391;-77
2022/02/08 08:30:47;;;;;;;3.95;2.72;;;;;;;6.93;100.00;102213.34;5110616;28;20507;-76
2022/02/08 08:33:12;;;;;;;3.80;2.72;;;;;;;6.93;100.00;102215.25;5070992;28;20085;-77
2022/02/08 08:35:39;;;;;;;3.60;2.55;;;;;;;6.93;100.00;102218.88;5076904;28;20024;-76
2022/02/08 08:38:07;;;;;;;4.65;2.55;;;;;;;6.96;100.00;102212.03;5065800;28;20050;-76
2022/02/08 08:40:44;;;;;;;11.25;2.67;;;;;;;6.98;100.00;102220.94;5081742;28;20023;-76
2022/02/08 08:51:24;;;;;;;6.43;3.33;;;;;;;7.08;100.00;102226.81;5079761;28;20403;-77
2022/02/08 08:53:43;;;;;;;7.40;3.92;;;;;;;7.11;100.00;102225.50;5077903;28;20036;-76
2022/02/08 08:56:08;;;;;;;8.25;4.10;;;;;;;7.12;100.00;102216.97;5080686;28;20080;-76
2022/02/08 08:58:36;;;;;;;6.72;3.17;;;;;;;7.14;100.00;102205.69;5081616;28;20091;-76
2022/02/08 09:01:03;;;;;;;7.05;3.38;;;;;;;7.17;100.00;102208.00;5075624;28;20092;-77
2022/02/08 09:03:29;;;;;;;8.02;3.78;;;;;;;7.20;100.00;102207.53;5082488;28;20114;-77
2022/02/08 09:05:54;;;;;;;7.25;3.13;;;;;;;7.21;100.00;102206.44;5064729;28;20067;-77
2022/02/08 09:08:22;;;;;;;8.55;4.15;;;;;;;7.24;100.00;102200.47;5080434;28;20035;-74
2022/02/08 09:10:56;;;;;;;7.22;3.72;;;;;;;7.27;100.00;102202.78;5081336;28;20028;-77
2022/02/08 09:15:58;;;;;;;10.27;4.57;;;;;;;7.30;100.00;102202.31;5078937;28;20036;-77
2022/02/08 09:26:14;;;;;;;9.70;4.20;;;;;;;7.42;100.00;102199.63;5080345;28;20563;-77
2022/02/08 09:28:43;;;;;;;8.98;4.18;;;;;;;7.46;100.00;102197.22;5067152;28;20035;-77
2022/02/08 09:31:14;;;;;;;9.45;3.95;;;;;;;7.48;100.00;102195.94;5061927;28;20034;-77
2022/02/08 09:33:39;;;;;;;10.95;4.40;;;;;;;7.51;100.00;102198.22;5077546;28;20051;-78
2022/02/08 09:36:05;;;;;;;9.00;4.43;;;;;;;7.54;100.00;102202.44;5056639;28;20040;-78
2022/02/08 09:38:31;;;;;;;12.05;4.93;;;;;;;7.56;100.00;102198.38;5075152;28;20040;-77
2022/02/08 09:41:00;;;;;;;12.23;5.03;;;;;;;7.60;100.00;102207.03;5114112;28;20036;-77
2022/02/08 09:43:29;;;;;;;12.05;5.35;;;;;;;7.62;100.00;102202.13;5076648;28;20040;-77
2022/02/08 09:45:57;;;;;;;11.70;5.43;;;;;;;7.65;100.00;102204.41;5072184;28;20514;-78
2022/02/08 09:48:29;;;;;;;13.90;6.28;;;;;;;7.66;100.00;102206.13;5060478;28;20028;-77
2022/02/08 09:50:56;;;;;;;8.53;4.10;;;;;;;7.69;100.00;102211.19;5108371;28;20039;-78
2022/02/08 09:53:31;;;;;;;10.27;4.82;;;;;;;7.71;100.00;102205.41;5060959;28;20564;-78
2022/02/08 09:55:57;;;;;;;13.75;6.70;;;;;;;7.73;100.00;102200.50;5070727;28;20115;-78
2022/02/08 09:58:22;;;;;;;14.15;6.55;;;;;;;7.75;100.00;102206.66;5077189;28;20108;-78
2022/02/08 10:00:48;;;;;;;16.05;6.43;;;;;;;7.76;100.00;102200.03;5085188;28;20036;-77
2022/02/08 10:03:18;;;;;;;11.32;5.22;;;;;;;7.78;100.00;102200.66;5097989;27;20055;-78
2022/02/08 10:05:54;;;;;;;12.25;5.70;;;;;;;7.79;100.00;102196.78;5112471;28;20074;-78
2022/02/08 10:08:20;;;;;;;11.50;5.53;;;;;;;7.82;100.00;102202.69;5064479;28;20032;-79
2022/02/08 10:10:46;;;;;;;13.45;6.85;;;;;;;7.84;100.00;102196.94;5096975;28;20031;-80
2022/02/08 10:24:04;;;;;;;9.95;5.10;;;;;;;7.95;100.00;102203.59;5092754;28;20029;-77
2022/02/08 10:26:58;;;;;;;10.43;5.75;;;;;;;7.97;100.00;102195.91;5065782;28;20081;-77
2022/02/08 10:29:36;;;;;;;10.50;6.13;;;;;;;8.00;100.00;102198.19;5052049;28;20036;-77
2022/02/08 10:40:09;;;;;;;8.05;4.93;;;;;;;8.12;100.00;102215.66;5084511;28;20052;-77
2022/02/08 10:42:35;;;;;;;9.20;5.28;;;;;;;8.13;100.00;102205.44;5084692;28;20028;-77
2022/02/08 10:45:01;;;;;;;10.02;5.72;;;;;;;8.15;100.00;102209.66;5098556;28;20027;-77
2022/02/08 10:47:37;;;;;;;9.43;5.60;;;;;;;8.16;100.00;102211.38;5083477;28;20028;-77
2022/02/08 10:50:04;;;;;;;9.55;5.15;;;;;;;8.19;100.00;102205.34;5075548;28;20029;-77
2022/02/08 10:52:30;;;;;;;8.43;5.30;;;;;;;8.20;100.00;102215.34;5070312;28;20028;-77
2022/02/08 10:54:59;;;;;;;6.72;4.45;;;;;;;8.21;100.00;102217.00;5081767;28;20044;-78
2022/02/08 10:57:33;;;;;;;7.28;4.53;;;;;;;8.22;100.00;102221.50;5073256;28;20062;-77
2022/02/08 11:00:03;;;;;;;8.00;5.22;;;;;;;8.23;100.00;102222.31;5075530;28;20103;-77
2022/02/08 11:02:36;;;;;;;8.35;5.55;;;;;;;8.23;100.00;102225.94;5081499;28;20173;-77
2022/02/08 11:05:11;;;;;;;10.23;6.43;;;;;;;8.23;100.00;102222.31;5082597;28;20036;-77
2022/02/08 11:12:59;;;;;;;7.93;5.40;;;;;;;8.26;100.00;102219.06;5074069;28;21875;-77
2022/02/08 11:18:20;;;;;;;8.13;5.00;;;;;;;8.26;100.00;102219.91;5064842;28;20093;-77
2022/02/08 11:20:51;;;;;;;4.65;3.40;;;;;;;8.28;100.00;102223.31;5086677;28;20062;-77
2022/02/08 11:23:24;;;;;;;5.60;3.67;;;;;;;8.31;100.00;102226.69;5094715;28;21493;-78
2022/02/08 11:25:52;;;;;;;4.88;3.53;;;;;;;8.34;100.00;102213.19;5088776;28;20056;-77
2022/02/08 11:31:08;;;;;;;4.88;3.17;;;;;;;8.43;100.00;102217.34;5097586;27;20097;-77
2022/02/08 11:38:56;;;;;;;4.40;2.85;;;;;;;8.47;100.00;102213.03;5091034;28;20735;-77
2022/02/08 11:47:38;;;;;;;3.47;2.53;;;;;;;8.69;100.00;102204.13;5097519;27;20035;-77
2022/02/08 11:50:36;;;;;;;7.18;4.53;;;;;;;8.73;100.00;102203.41;5107665;27;20055;-77
2022/02/08 11:58:12;;;;;;;5.00;3.50;;;;;;;8.81;100.00;102188.34;5137783;27;20091;-77
2022/02/08 12:06:02;;;;;;;8.38;4.97;;;;;;;8.87;100.00;102179.06;5119098;27;20406;-77
2022/02/08 12:08:27;;;;;;;9.07;5.80;;;;;;;8.89;100.00;102179.69;5086421;28;20036;-77
2022/02/08 12:11:12;;;;;;;9.52;6.00;;;;;;;8.91;100.00;102173.88;5091405;27;20031;-77
2022/02/08 12:33:17;;;;;;;9.15;5.95;;;;;;;9.01;100.00;102143.63;5104666;28;20055;-77
2022/02/08 12:57:42;;;;;;;9.80;6.63;;;;;;;9.15;100.00;102128.41;5089977;28;20201;-78
2022/02/08 13:02:55;;;;;;;9.23;6.38;;;;;;;9.15;100.00;102128.41;5062460;28;20036;-77
2022/02/08 13:18:02;;;;;;;9.93;6.10;;;;;;;9.14;100.00;102123.13;5077178;28;20453;-78
2022/02/08 13:32:41;;;;;;;8.88;6.55;;;;;;;9.07;100.00;102109.38;5070756;28;20086;-77
2022/02/08 14:17:14;;;;;;;11.52;7.07;;;;;;;9.31;100.00;102046.41;5106059;28;20031;-77
2022/02/08 14:22:13;;;;;;;13.30;7.13;;;;;;;9.35;100.00;102041.19;5070608;28;20050;-78
2022/02/08 14:30:01;;;;;;;10.02;6.38;;;;;;;9.43;100.00;102042.72;5083603;28;20063;-77
2022/02/08 14:32:37;;;;;;;11.40;7.07;;;;;;;9.41;100.00;102037.41;5071452;28;20055;-78
2022/02/08 15:10:14;;;;;;;17.63;9.45;;;;;;;9.33;100.00;102032.28;5082786;28;20051;-78
2022/02/08 15:12:42;;;;;;;19.30;10.27;;;;;;;9.31;100.00;102032.53;5084324;28;20043;-78
2022/02/08 15:15:24;;;;;;;18.33;9.60;;;;;;;9.30;100.00;102032.78;5066182;28;20117;-78
2022/02/08 15:17:50;;;;;;;18.10;9.18;;;;;;;9.31;100.00;102032.53;5072225;28;20457;-77
2022/02/08 15:20:16;;;;;;;20.63;9.88;;;;;;;9.29;100.00;102025.56;5080749;28;20027;-77
2022/02/08 15:22:42;;;;;;;16.98;8.93;;;;;;;9.29;100.00;102026.41;5066560;28;20038;-75
2022/02/08 15:25:13;;;;;;;20.98;9.88;;;;;;;9.27;100.00;102027.72;5064212;28;20028;-77
2022/02/08 15:27:40;;;;;;;19.40;9.68;;;;;;;9.27;100.00;102028.56;5092189;28;20054;-77
2022/02/08 15:30:07;;;;;;;20.30;9.88;;;;;;;9.27;100.00;102036.03;5076077;28;20415;-78
2022/02/08 15:32:34;;;;;;;20.20;9.77;;;;;;;9.25;100.00;102030.78;5103457;28;20048;-77
2022/02/08 15:35:00;;;;;;;17.83;8.77;;;;;;;9.27;100.00;102033.28;5090911;28;20070;-77
2022/02/08 15:37:30;;;;;;;18.65;9.05;;;;;;;9.27;100.00;102027.72;5115037;28;20028;-77
2022/02/08 15:39:59;;;;;;;20.27;9.23;;;;;;;9.26;100.00;102035.22;5102469;28;20472;-77
2022/02/08 15:42:31;;;;;;;19.92;8.43;;;;;;;9.27;100.00;102023.03;5073201;28;20032;-77
2022/02/08 15:45:06;;;;;;;19.75;9.25;;;;;;;9.28;100.00;102023.88;5068685;28;20027;-77
2022/02/08 15:47:31;;;;;;;18.27;8.75;;;;;;;9.28;100.00;102023.88;5095720;28;20369;-77
2022/02/08 15:50:05;;;;;;;18.52;9.10;;;;;;;9.28;100.00;102024.72;5099269;28;20047;-77
2022/02/08 15:55:15;;;;;;;18.95;8.77;;;;;;;9.27;100.00;102016.66;5117930;27;20031;-77
2022/02/08 16:14:14;;;;;;;18.50;8.95;;;;;;;9.23;100.00;102018.25;5084361;28;20035;-77
2022/02/08 16:24:45;;;;;;;20.75;10.35;;;;;;;9.18;100.00;102003.19;5086453;28;20058;-78
2022/02/08 16:54:06;;;;;;;19.92;9.60;;;;;;;8.86;100.00;102005.63;5077238;28;20036;-77
2022/02/08 16:59:16;;;;;;;17.85;9.13;;;;;;;8.79;100.00;101999.38;5098544;28;19967;-77
2022/02/08 17:01:41;;;;;;;17.58;8.65;;;;;;;8.75;100.00;101998.19;5081656;28;20118;-78
2022/02/08 17:04:09;;;;;;;17.88;8.82;;;;;;;8.70;100.00;101992.53;5065656;28;20023;-77
2022/02/08 17:06:34;;;;;;;18.83;8.35;;;;;;;8.67;100.00;101999.41;5060193;28;20412;-77
2022/02/08 17:09:14;;;;;;;18.45;9.02;;;;;;;8.64;100.00;101990.75;5059002;28;20088;-77
2022/02/08 17:11:49;;;;;;;18.17;8.82;;;;;;;8.59;100.00;101985.94;5080063;28;20024;-77
2022/02/08 17:17:20;;;;;;;16.83;8.45;;;;;;;8.52;100.00;101992.69;5082754;28;20035;-76
2022/02/08 17:37:29;;;;;;;16.13;8.18;;;;;;;8.07;100.00;101980.31;5083778;28;20032;-76
2022/02/08 17:49:35;;;;;;;18.10;8.57;;;;;;;7.76;100.00;101970.47;5107659;28;20043;-76
2022/02/08 17:52:01;;;;;;;18.00;8.30;;;;;;;7.69;100.00;101967.84;5093202;28;20039;-75
2022/02/08 17:54:26;;;;;;;19.75;8.85;;;;;;;7.60;100.00;101969.25;5076830;28;20035;-75
2022/02/08 17:56:54;;;;;;;18.67;8.55;;;;;;;7.55;100.00;101977.41;5085968;28;20020;-75
2022/02/08 17:59:24;;;;;;;18.00;9.25;;;;;;;7.47;100.00;101969.50;5105275;28;20039;-75
2022/02/08 18:01:50;;;;;;;18.02;9.48;;;;;;;7.41;100.00;101963.00;5051324;28;20454;-75
2022/02/08 18:04:16;;;;;;;18.70;8.82;;;;;;;7.35;100.00;101967.56;5072814;28;20123;-74
2022/02/08 18:06:42;;;;;;;16.42;8.85;;;;;;;7.23;100.00;101977.72;5089236;28;20123;-77
2022/02/08 18:09:07;;;;;;;19.05;8.95;;;;;;;7.20;100.00;101978.19;5067433;28;20031;-73
2022/02/08 18:11:38;;;;;;;18.33;9.27;;;;;;;7.13;100.00;101969.16;5115577;28;20037;-73
2022/02/08 18:14:07;;;;;;;20.10;10.02;;;;;;;7.06;100.00;101973.94;5094513;28;20042;-73
2022/02/08 18:16:34;;;;;;;18.17;8.77;;;;;;;6.98;100.00;101968.75;5105499;28;20028;-73
2022/02/08 18:19:09;;;;;;;18.13;9.27;;;;;;;6.90;100.00;101976.28;5114070;28;20135;-73
2022/02/08 18:21:40;;;;;;;18.13;9.10;;;;;;;6.85;100.00;101972.53;5065953;28;20095;-73
2022/02/08 18:53:53;;;;;;;16.92;9.13;;;;;;;6.18;100.00;101958.72;5090154;28;20032;-78